createdAt,value
2023-04-03T00:00:32.687Z,99.99
2023-04-03T00:01:32.745Z,99.99
2023-04-03T00:02:32.753Z,99.99
2023-04-03T00:03:32.673Z,99.99
2023-04-03T00:04:32.635Z,99.99
2023-04-03T00:05:32.665Z,99.99
2023-04-03T00:06:32.614Z,99.99
2023-04-03T00:07:32.585Z,99.99
2023-04-03T00:08:32.582Z,99.99
2023-04-03T00:09:32.628Z,99.99
2023-04-03T00:10:32.704Z,99.99
2023-04-03T00:11:32.563Z,99.99
2023-04-03T00:12:32.758Z,99.99
2023-04-03T00:13:32.639Z,99.99
2023-04-03T00:14:32.544Z,99.99
2023-04-03T00:15:32.474Z,99.99
2023-04-03T00:16:32.545Z,99.99
2023-04-03T00:17:32.449Z,99.99
2023-04-03T00:18:32.459Z,99.99
2023-04-03T00:19:32.440Z,99.99
2023-04-03T00:20:32.484Z,99.99
2023-04-03T00:21:32.404Z,99.99
2023-04-03T00:22:32.608Z,99.99
2023-04-03T00:23:32.394Z,99.99
2023-04-03T00:24:32.438Z,99.99
2023-04-03T00:25:32.375Z,99.99
2023-04-03T00:26:32.391Z,99.99
2023-04-03T00:27:32.315Z,99.99
2023-04-03T00:28:32.317Z,99.99
2023-04-03T00:29:32.292Z,99.99
2023-04-03T00:30:32.324Z,99.99
2023-04-03T00:31:32.343Z,99.99
2023-04-03T00:32:32.344Z,99.99
2023-04-03T00:33:32.259Z,99.99
2023-04-03T00:34:32.286Z,99.99
2023-04-03T00:35:32.266Z,99.99
2023-04-03T00:36:32.303Z,99.99
2023-04-03T00:37:32.234Z,99.99
2023-04-03T00:38:32.215Z,99.99
2023-04-03T00:39:32.163Z,99.99
2023-04-03T00:40:32.191Z,99.99
2023-04-03T00:41:32.193Z,99.99
2023-04-03T00:42:32.197Z,99.99
2023-04-03T00:43:32.170Z,99.99
2023-04-03T00:44:32.153Z,99.99
2023-04-03T00:45:32.129Z,99.99
2023-04-03T00:46:32.165Z,99.99
2023-04-03T00:47:32.099Z,99.99
2023-04-03T00:48:32.125Z,99.99
2023-04-03T00:49:32.071Z,99.99
2023-04-03T00:50:32.021Z,99.99
2023-04-03T00:51:32.040Z,99.99
2023-04-03T00:52:32.051Z,99.99
2023-04-03T00:53:31.985Z,99.99
2023-04-03T00:54:31.994Z,99.99
2023-04-03T00:55:32.016Z,99.99
2023-04-03T00:56:31.975Z,99.99
2023-04-03T00:57:32.156Z,99.99
2023-04-03T00:58:31.943Z,99.99
2023-04-03T00:59:31.988Z,99.99
2023-04-03T01:00:31.935Z,99.99
2023-04-03T01:01:31.936Z,99.99
2023-04-03T01:02:31.914Z,99.99
2023-04-03T01:03:31.852Z,99.99
2023-04-03T01:04:31.989Z,99.99
2023-04-03T01:05:31.864Z,99.99
2023-04-03T01:06:31.866Z,99.99
2023-04-03T01:07:31.883Z,99.99
2023-04-03T01:08:31.881Z,99.99
2023-04-03T01:09:31.821Z,99.99
2023-04-03T01:10:31.863Z,99.99
2023-04-03T01:11:31.941Z,99.99
2023-04-03T01:12:31.824Z,99.99
2023-04-03T01:13:31.791Z,99.99
2023-04-03T01:14:31.766Z,99.99
2023-04-03T01:15:31.729Z,99.99
2023-04-03T01:16:31.842Z,99.99
2023-04-03T01:17:31.728Z,99.99
2023-04-03T01:18:31.680Z,99.99
2023-04-03T01:19:31.687Z,99.99
2023-04-03T01:20:31.715Z,99.99
2023-04-03T01:21:31.688Z,99.99
2023-04-03T01:22:31.769Z,99.99
2023-04-03T01:23:31.643Z,99.99
2023-04-03T01:24:31.632Z,99.99
2023-04-03T01:25:31.600Z,99.99
2023-04-03T01:26:31.596Z,99.99
2023-04-03T01:27:31.637Z,99.99
2023-04-03T01:28:31.543Z,99.99
2023-04-03T01:29:31.582Z,99.99
2023-04-03T01:30:31.553Z,99.99
2023-04-03T01:31:31.610Z,99.99
2023-04-03T01:32:31.556Z,99.99
2023-04-03T01:33:31.601Z,99.99
2023-04-03T01:34:31.460Z,99.99
2023-04-03T01:35:31.497Z,99.99
2023-04-03T01:36:31.464Z,99.99
2023-04-03T01:37:31.431Z,99.99
2023-04-03T01:38:31.427Z,99.99
2023-04-03T01:39:31.429Z,99.99
2023-04-03T01:40:31.381Z,99.99
2023-04-03T01:41:31.434Z,99.99
2023-04-03T01:42:31.388Z,99.99
2023-04-03T01:43:31.395Z,99.99
2023-04-03T01:44:31.419Z,99.99
2023-04-03T01:45:31.359Z,99.99
2023-04-03T01:46:39.856Z,99.99
2023-04-03T01:47:31.347Z,99.99
2023-04-03T01:48:31.286Z,99.99
2023-04-03T01:49:31.285Z,99.99
2023-04-03T01:50:31.295Z,99.99
2023-04-03T01:51:31.237Z,99.99
2023-04-03T01:52:31.224Z,99.99
2023-04-03T01:53:31.268Z,99.99
2023-04-03T01:54:31.224Z,99.99
2023-04-03T01:55:31.242Z,99.99
2023-04-03T01:56:31.209Z,99.99
2023-04-03T01:57:31.324Z,99.99
2023-04-03T01:58:31.172Z,99.99
2023-04-03T01:59:31.167Z,99.99
2023-04-03T02:00:31.143Z,99.99
2023-04-03T02:01:31.256Z,99.99
2023-04-03T02:02:31.177Z,99.99
2023-04-03T02:03:31.113Z,99.99
2023-04-03T02:04:31.118Z,99.99
2023-04-03T02:05:31.156Z,99.99
2023-04-03T02:06:31.108Z,99.99
2023-04-03T02:07:31.070Z,99.99
2023-04-03T02:08:31.026Z,99.99
2023-04-03T02:09:31.055Z,99.99
2023-04-03T02:10:31.059Z,99.99
2023-04-03T02:11:30.990Z,99.99
2023-04-03T02:12:30.978Z,99.99
2023-04-03T02:13:30.965Z,99.99
2023-04-03T02:14:30.947Z,99.99
2023-04-03T02:15:30.928Z,99.99
2023-04-03T02:16:30.972Z,99.99
2023-04-03T02:17:30.959Z,99.81
2023-04-03T02:18:30.909Z,98.97
2023-04-03T02:19:30.875Z,98.14
2023-04-03T02:20:30.868Z,97.72
2023-04-03T02:21:30.881Z,97.72
2023-04-03T02:22:30.864Z,97.72
2023-04-03T02:23:30.901Z,97.41
2023-04-03T02:24:30.850Z,97.41
2023-04-03T02:25:30.805Z,98.04
2023-04-03T02:26:30.811Z,97.56
2023-04-03T02:27:30.826Z,97.83
2023-04-03T02:28:30.792Z,97.56
2023-04-03T02:29:30.781Z,97.56
2023-04-03T02:30:30.744Z,97.67
2023-04-03T02:31:30.839Z,97.88
2023-04-03T02:32:30.733Z,98.08
2023-04-03T02:33:30.747Z,97.83
2023-04-03T02:34:30.673Z,97.83
2023-04-03T02:35:30.745Z,97.62
2023-04-03T02:36:32.892Z,97.41
2023-04-03T02:37:30.697Z,97.14
2023-04-03T02:38:30.624Z,96.16
2023-04-03T02:39:30.662Z,95.23
2023-04-03T02:40:30.678Z,94.98
2023-04-03T02:41:30.630Z,95.08
2023-04-03T02:42:30.592Z,94.87
2023-04-03T02:43:30.596Z,94.66
2023-04-03T02:44:30.546Z,95.12
2023-04-03T02:45:30.617Z,95.12
2023-04-03T02:46:30.660Z,95.02
2023-04-03T02:47:30.620Z,95.23
2023-04-03T02:48:30.544Z,94.92
2023-04-03T02:49:30.531Z,94.29
2023-04-03T02:50:30.487Z,94.04
2023-04-03T02:51:30.536Z,93.83
2023-04-03T02:52:30.493Z,93.52
2023-04-03T02:53:30.498Z,93.31
2023-04-03T02:54:30.447Z,93.20
2023-04-03T02:55:30.441Z,92.79
2023-04-03T02:56:30.449Z,92.68
2023-04-03T02:57:30.550Z,92.47
2023-04-03T02:58:30.420Z,92.58
2023-04-03T02:59:30.393Z,92.58
2023-04-03T03:00:30.434Z,92.47
2023-04-03T03:01:30.355Z,92.37
2023-04-03T03:02:30.398Z,92.37
2023-04-03T03:03:30.357Z,92.47
2023-04-03T03:04:30.353Z,91.85
2023-04-03T03:05:30.352Z,91.64
2023-04-03T03:06:30.336Z,91.33
2023-04-03T03:07:30.341Z,91.28
2023-04-03T03:08:30.282Z,90.77
2023-04-03T03:09:30.306Z,90.87
2023-04-03T03:10:30.231Z,90.97
2023-04-03T03:11:30.256Z,90.77
2023-04-03T03:12:32.603Z,90.35
2023-04-03T03:13:30.236Z,89.94
2023-04-03T03:14:30.198Z,89.52
2023-04-03T03:15:30.182Z,89.52
2023-04-03T03:16:30.395Z,89.52
2023-04-03T03:17:30.260Z,89.83
2023-04-03T03:18:30.136Z,89.83
2023-04-03T03:19:30.176Z,89.73
2023-04-03T03:20:30.180Z,89.62
2023-04-03T03:21:30.071Z,89.94
2023-04-03T03:22:31.815Z,90.04
2023-04-03T03:23:30.128Z,89.94
2023-04-03T03:24:30.096Z,89.62
2023-04-03T03:25:30.053Z,89.31
2023-04-03T03:26:30.012Z,88.68
2023-04-03T03:27:30.034Z,88.48
2023-04-03T03:28:30.012Z,88.79
2023-04-03T03:29:30.020Z,88.37
2023-04-03T03:30:29.996Z,87.40
2023-04-03T03:31:30.012Z,87.40
2023-04-03T03:32:29.992Z,87.29
2023-04-03T03:33:29.949Z,87.29
2023-04-03T03:34:29.967Z,87.40
2023-04-03T03:35:29.941Z,87.40
2023-04-03T03:36:29.928Z,87.40
2023-04-03T03:37:29.886Z,87.60
2023-04-03T03:38:29.882Z,87.81
2023-04-03T03:39:29.896Z,87.50
2023-04-03T03:40:29.939Z,87.92
2023-04-03T03:41:29.894Z,87.65
2023-04-03T03:42:29.813Z,88.06
2023-04-03T03:43:29.785Z,87.85
2023-04-03T03:44:29.843Z,88.17
2023-04-03T03:45:29.772Z,88.58
2023-04-03T03:46:29.836Z,88.37
2023-04-03T03:47:29.785Z,88.37
2023-04-03T03:48:29.788Z,88.48
2023-04-03T03:49:29.741Z,88.58
2023-04-03T03:50:29.688Z,88.58
2023-04-03T03:51:29.732Z,88.17
2023-04-03T03:52:29.739Z,88.27
2023-04-03T03:53:29.687Z,88.27
2023-04-03T03:54:29.731Z,88.48
2023-04-03T03:55:29.683Z,88.17
2023-04-03T03:56:29.688Z,88.17
2023-04-03T03:57:29.756Z,88.06
2023-04-03T03:58:29.616Z,88.37
2023-04-03T03:59:29.630Z,88.37
2023-04-03T04:00:29.581Z,88.27
2023-04-03T04:01:29.609Z,88.62
2023-04-03T04:02:29.598Z,88.83
2023-04-03T04:03:29.595Z,88.73
2023-04-03T04:04:29.590Z,88.31
2023-04-03T04:05:29.528Z,88.31
2023-04-03T04:06:29.518Z,88.31
2023-04-03T04:07:29.546Z,88.20
2023-04-03T04:08:29.517Z,88.31
2023-04-03T04:09:29.609Z,88.31
2023-04-03T04:10:29.476Z,88.20
2023-04-03T04:11:29.472Z,88.42
2023-04-03T04:12:29.459Z,88.42
2023-04-03T04:13:29.432Z,88.52
2023-04-03T04:14:29.414Z,88.31
2023-04-03T04:15:29.383Z,88.42
2023-04-03T04:16:29.482Z,88.52
2023-04-03T04:17:29.435Z,88.52
2023-04-03T04:18:29.403Z,88.52
2023-04-03T04:19:29.380Z,88.62
2023-04-03T04:20:29.397Z,88.73
2023-04-03T04:21:29.404Z,88.52
2023-04-03T04:22:29.325Z,88.42
2023-04-03T04:23:29.309Z,88.52
2023-04-03T04:24:29.319Z,88.62
2023-04-03T04:25:29.319Z,88.62
2023-04-03T04:26:29.282Z,88.62
2023-04-03T04:27:29.264Z,88.62
2023-04-03T04:28:29.232Z,88.73
2023-04-03T04:29:29.228Z,88.93
2023-04-03T04:30:29.262Z,88.62
2023-04-03T04:31:29.288Z,88.52
2023-04-03T04:32:29.225Z,88.31
2023-04-03T04:33:29.240Z,88.10
2023-04-03T04:34:29.231Z,87.99
2023-04-03T04:35:29.207Z,88.20
2023-04-03T04:36:29.270Z,88.42
2023-04-03T04:37:29.104Z,88.62
2023-04-03T04:38:29.089Z,88.52
2023-04-03T04:39:29.118Z,88.42
2023-04-03T04:40:29.098Z,88.31
2023-04-03T04:41:29.119Z,88.31
2023-04-03T04:42:29.088Z,88.31
2023-04-03T04:43:29.049Z,88.62
2023-04-03T04:44:29.024Z,88.56
2023-04-03T04:45:29.057Z,88.66
2023-04-03T04:46:29.031Z,88.76
2023-04-03T04:47:29.028Z,88.56
2023-04-03T04:48:30.690Z,88.66
2023-04-03T04:49:28.965Z,88.66
2023-04-03T04:50:29.006Z,88.76
2023-04-03T04:51:32.886Z,88.76
2023-04-03T04:52:29.933Z,88.76
2023-04-03T04:53:28.913Z,88.76
2023-04-03T04:54:28.912Z,88.56
2023-04-03T04:55:39.916Z,88.45
2023-04-03T04:56:28.874Z,88.66
2023-04-03T04:57:40.036Z,88.87
2023-04-03T04:58:38.858Z,89.08
2023-04-03T04:59:39.848Z,89.18
2023-04-03T05:00:43.269Z,89.29
2023-04-03T05:01:29.116Z,89.08
2023-04-03T05:02:29.069Z,88.98
2023-04-03T05:03:28.846Z,88.98
2023-04-03T05:04:28.819Z,88.87
2023-04-03T05:05:28.763Z,88.98
2023-04-03T05:06:28.754Z,89.08
2023-04-03T05:07:28.797Z,88.98
2023-04-03T05:08:28.805Z,89.08
2023-04-03T05:09:28.726Z,88.98
2023-04-03T05:10:28.806Z,89.18
2023-04-03T05:11:28.776Z,89.01
2023-04-03T05:12:28.786Z,89.32
2023-04-03T05:13:28.741Z,89.32
2023-04-03T05:14:28.889Z,89.64
2023-04-03T05:15:28.800Z,89.85
2023-04-03T05:16:28.764Z,89.95
2023-04-03T05:17:29.036Z,89.85
2023-04-03T05:18:29.106Z,89.95
2023-04-03T05:19:28.602Z,89.95
2023-04-03T05:20:28.834Z,89.95
2023-04-03T05:21:28.821Z,90.06
2023-04-03T05:22:28.802Z,90.06
2023-04-03T05:23:28.677Z,90.20
2023-04-03T05:24:28.536Z,90.31
2023-04-03T05:25:28.837Z,90.37
2023-04-03T05:26:28.851Z,90.52
2023-04-03T05:27:29.044Z,90.41
2023-04-03T05:28:28.839Z,90.20
2023-04-03T05:29:28.593Z,89.95
2023-04-03T05:30:29.539Z,90.06
2023-04-03T05:31:28.740Z,90.16
2023-04-03T05:32:28.775Z,90.06
2023-04-03T05:33:28.508Z,90.06
2023-04-03T05:34:28.436Z,90.06
2023-04-03T05:35:28.416Z,89.85
2023-04-03T05:36:28.684Z,89.95
2023-04-03T05:37:28.534Z,90.06
2023-04-03T05:38:29.441Z,89.95
2023-04-03T05:39:28.539Z,89.75
2023-04-03T05:42:09.371Z,88.66
2023-04-03T05:43:09.391Z,88.35
2023-04-03T05:44:09.448Z,88.45
2023-04-03T05:45:09.770Z,88.42
2023-04-03T05:46:09.572Z,88.31
2023-04-03T05:47:21.161Z,88.42
2023-04-03T05:48:09.524Z,88.42
2023-04-03T05:49:09.620Z,88.31
2023-04-03T05:50:09.311Z,88.20
2023-04-03T05:51:09.327Z,87.23
2023-04-03T05:52:09.229Z,87.43
2023-04-03T05:53:10.813Z,86.91
2023-04-03T05:54:12.122Z,87.12
2023-04-03T05:55:09.146Z,87.33
2023-04-03T05:56:09.316Z,87.16
2023-04-03T05:57:09.236Z,87.37
2023-04-03T05:58:11.105Z,87.48
2023-04-03T05:59:10.357Z,87.33
2023-04-03T06:00:09.496Z,86.81
2023-04-03T06:01:09.536Z,86.50
2023-04-03T06:02:09.300Z,86.60
2023-04-03T06:03:09.442Z,86.11
2023-04-03T06:04:09.176Z,84.99
2023-04-03T06:05:09.261Z,83.53
2023-04-03T06:06:17.734Z,82.25
2023-04-03T06:07:08.987Z,82.29
2023-04-03T06:08:10.393Z,82.29
2023-04-03T06:09:08.973Z,82.39
2023-04-03T06:10:08.933Z,82.35
2023-04-03T06:11:08.931Z,82.04
2023-04-03T06:12:08.951Z,81.73
2023-04-03T06:13:08.913Z,82.01
2023-04-03T06:14:09.013Z,81.70
2023-04-03T06:15:08.936Z,81.46
2023-04-03T06:16:09.010Z,83.01
2023-04-03T06:17:08.926Z,83.16
2023-04-03T06:18:08.885Z,83.61
2023-04-03T06:19:09.041Z,83.82
2023-04-03T06:20:08.888Z,84.69
2023-04-03T06:21:08.813Z,84.75
2023-04-03T06:22:08.836Z,85.31
2023-04-03T06:23:09.155Z,85.42
2023-04-03T06:24:08.867Z,85.31
2023-04-03T06:25:08.766Z,85.21
2023-04-03T06:26:08.733Z,85.06
2023-04-03T06:27:08.751Z,84.20
2023-04-03T06:28:08.948Z,83.12
2023-04-03T06:29:08.850Z,83.47
2023-04-03T06:30:08.670Z,83.58
2023-04-03T06:31:08.825Z,83.99
2023-04-03T06:32:08.698Z,83.61
2023-04-03T06:33:08.722Z,83.99
2023-04-03T06:34:09.697Z,82.98
2023-04-03T06:35:08.698Z,81.35
2023-04-03T06:36:08.678Z,79.58
2023-04-03T06:37:08.635Z,79.03
2023-04-03T06:38:08.588Z,78.37
2023-04-03T06:39:08.577Z,77.92
2023-04-03T06:40:08.612Z,76.57
2023-04-03T06:41:08.603Z,75.74
2023-04-03T06:42:08.680Z,75.43
2023-04-03T06:43:08.591Z,75.29
2023-04-03T06:44:08.539Z,74.95
2023-04-03T06:45:08.478Z,74.43
2023-04-03T06:46:08.500Z,74.19
2023-04-03T06:47:08.445Z,73.84
2023-04-03T06:48:08.587Z,74.15
2023-04-03T06:49:09.644Z,74.88
2023-04-03T06:50:08.460Z,74.98
2023-04-03T06:51:08.537Z,75.09
2023-04-03T06:52:08.415Z,74.74
2023-04-03T06:53:08.511Z,73.84
2023-04-03T06:54:10.524Z,74.40
2023-04-03T06:55:08.420Z,75.74
2023-04-03T06:56:08.430Z,74.77
2023-04-03T06:57:08.346Z,75.12
2023-04-03T06:58:08.453Z,75.46
2023-04-03T06:59:08.361Z,76.54
2023-04-03T07:00:08.371Z,76.43
2023-04-03T07:01:08.296Z,76.43
2023-04-03T07:02:08.334Z,76.40
2023-04-03T07:03:08.414Z,76.26
2023-04-03T07:04:08.334Z,75.63
2023-04-03T07:05:08.294Z,75.53
2023-04-03T07:06:08.247Z,75.46
2023-04-03T07:07:08.352Z,75.81
2023-04-03T07:08:08.261Z,76.85
2023-04-03T07:09:09.188Z,76.64
2023-04-03T07:10:08.244Z,76.78
2023-04-03T07:11:08.166Z,77.16
2023-04-03T07:12:08.393Z,77.06
2023-04-03T07:13:08.117Z,76.57
2023-04-03T07:14:08.128Z,76.64
2023-04-03T07:15:08.131Z,76.05
2023-04-03T07:16:08.179Z,74.60
2023-04-03T07:17:08.358Z,73.94
2023-04-03T07:18:08.163Z,73.19
2023-04-03T07:19:08.105Z,72.85
2023-04-03T07:20:08.083Z,71.70
2023-04-03T07:21:08.010Z,72.56
2023-04-03T07:22:08.258Z,72.33
2023-04-03T07:23:07.986Z,72.36
2023-04-03T07:24:10.085Z,73.11
2023-04-03T07:25:07.977Z,72.98
2023-04-03T07:26:07.985Z,72.63
2023-04-03T07:27:07.946Z,73.88
2023-04-03T07:28:08.083Z,74.88
2023-04-03T07:29:07.931Z,75.29
2023-04-03T07:30:07.929Z,76.12
2023-04-03T07:31:08.019Z,76.23
2023-04-03T07:32:08.045Z,75.84
2023-04-03T07:33:07.956Z,74.63
2023-04-03T07:34:07.914Z,72.71
2023-04-03T07:35:07.866Z,71.81
2023-04-03T07:36:07.898Z,71.53
2023-04-03T07:37:07.879Z,71.71
2023-04-03T07:38:07.835Z,69.92
2023-04-03T07:39:07.845Z,70.20
2023-04-03T07:40:07.858Z,68.58
2023-04-03T07:41:07.947Z,69.33
2023-04-03T07:42:07.730Z,70.57
2023-04-03T07:43:07.991Z,69.64
2023-04-03T07:44:07.964Z,69.78
2023-04-03T07:45:07.749Z,70.40
2023-04-03T07:46:07.825Z,70.19
2023-04-03T07:47:07.916Z,70.09
2023-04-03T07:48:07.788Z,70.22
2023-04-03T07:49:07.850Z,71.67
2023-04-03T07:50:07.709Z,71.12
2023-04-03T07:51:07.649Z,70.47
2023-04-03T07:52:07.679Z,69.74
2023-04-03T07:53:07.687Z,69.88
2023-04-03T07:54:07.677Z,70.16
2023-04-03T07:55:07.659Z,69.26
2023-04-03T07:56:07.761Z,69.47
2023-04-03T07:57:07.812Z,68.98
2023-04-03T07:58:07.726Z,69.01
2023-04-03T07:59:07.567Z,68.94
2023-04-03T08:00:07.689Z,68.94
2023-04-03T08:01:07.536Z,70.39
2023-04-03T08:02:07.519Z,69.56
2023-04-03T08:03:09.589Z,70.63
2023-04-03T08:04:07.600Z,70.29
2023-04-03T08:05:07.697Z,70.53
2023-04-03T08:06:11.740Z,70.94
2023-04-03T08:07:08.494Z,71.36
2023-04-03T08:08:07.450Z,72.29
2023-04-03T08:09:07.457Z,72.81
2023-04-03T08:10:07.433Z,72.74
2023-04-03T08:11:07.594Z,69.16
2023-04-03T08:12:07.366Z,69.43
2023-04-03T08:13:07.420Z,67.13
2023-04-03T08:14:07.441Z,67.13
2023-04-03T08:15:07.440Z,67.13
2023-04-03T08:16:07.425Z,66.51
2023-04-03T08:17:07.541Z,64.76
2023-04-03T08:18:07.421Z,64.73
2023-04-03T08:19:09.729Z,64.56
2023-04-03T08:20:08.402Z,63.92
2023-04-03T08:21:07.243Z,61.54
2023-04-03T08:22:07.253Z,61.41
2023-04-03T08:23:07.373Z,60.53
2023-04-03T08:24:07.441Z,59.50
2023-04-03T08:25:07.261Z,59.94
2023-04-03T08:26:07.205Z,60.69
2023-04-03T08:27:07.208Z,60.72
2023-04-03T08:28:07.200Z,61.40
2023-04-03T08:29:07.173Z,62.43
2023-04-03T08:30:07.272Z,63.25
2023-04-03T08:31:07.194Z,64.28
2023-04-03T08:32:07.201Z,64.49
2023-04-03T08:33:07.172Z,64.49
2023-04-03T08:34:07.141Z,63.49
2023-04-03T08:35:07.094Z,63.13
2023-04-03T08:36:07.157Z,63.13
2023-04-03T08:37:07.119Z,63.72
2023-04-03T08:38:07.124Z,63.00
2023-04-03T08:39:07.189Z,62.46
2023-04-03T08:40:07.123Z,62.53
2023-04-03T08:41:07.409Z,62.37
2023-04-03T08:42:07.155Z,61.21
2023-04-03T08:43:07.029Z,60.46
2023-04-03T08:44:07.057Z,60.33
2023-04-03T08:45:07.033Z,59.50
2023-04-03T08:46:07.341Z,59.47
2023-04-03T08:47:06.959Z,59.68
2023-04-03T08:48:06.992Z,59.30
2023-04-03T08:49:07.023Z,60.25
2023-04-03T08:50:07.237Z,61.13
2023-04-03T08:51:12.087Z,60.33
2023-04-03T08:52:07.870Z,60.13
2023-04-03T08:53:06.898Z,61.07
2023-04-03T08:54:06.903Z,58.86
2023-04-03T08:55:06.860Z,57.85
2023-04-03T08:56:06.837Z,55.90
2023-04-03T08:57:06.904Z,55.66
2023-04-03T08:58:06.869Z,53.61
2023-04-03T08:59:06.920Z,53.51
2023-04-03T09:00:06.843Z,53.51
2023-04-03T09:01:06.832Z,52.87
2023-04-03T09:02:06.950Z,53.30
2023-04-03T09:03:06.787Z,52.71
2023-04-03T09:04:06.831Z,53.56
2023-04-03T09:05:11.174Z,51.84
2023-04-03T09:06:06.814Z,53.69
2023-04-03T09:07:06.760Z,54.30
2023-04-03T09:08:06.689Z,53.43
2023-04-03T09:09:06.886Z,55.07
2023-04-03T09:10:06.774Z,54.02
2023-04-03T09:11:06.714Z,53.15
2023-04-03T09:12:06.756Z,50.91
2023-04-03T09:13:06.686Z,51.81
2023-04-03T09:14:06.643Z,54.56
2023-04-03T09:15:06.776Z,54.51
2023-04-03T09:16:06.685Z,53.74
2023-04-03T09:17:06.638Z,52.53
2023-04-03T09:18:06.660Z,52.71
2023-04-03T09:19:06.612Z,52.33
2023-04-03T09:20:06.620Z,53.35
2023-04-03T09:21:06.587Z,52.64
2023-04-03T09:22:06.587Z,51.20
2023-04-03T09:23:06.589Z,50.19
2023-04-03T09:24:06.498Z,50.11
2023-04-03T09:25:07.146Z,50.21
2023-04-03T09:26:06.458Z,52.29
2023-04-03T09:27:06.618Z,53.28
2023-04-03T09:28:06.468Z,51.53
2023-04-03T09:29:06.475Z,52.58
2023-04-03T09:30:06.482Z,52.19
2023-04-03T09:31:06.524Z,52.40
2023-04-03T09:32:06.521Z,53.09
2023-04-03T09:33:06.488Z,52.37
2023-04-03T09:34:06.427Z,50.81
2023-04-03T09:35:18.947Z,50.50
2023-04-03T09:36:07.419Z,49.06
2023-04-03T09:37:06.347Z,49.90
2023-04-03T09:38:06.335Z,49.70
2023-04-03T09:39:06.358Z,47.77
2023-04-03T09:40:06.554Z,49.99
2023-04-03T09:41:06.314Z,51.79
2023-04-03T09:42:06.322Z,53.14
2023-04-03T09:43:06.268Z,54.25
2023-04-03T09:44:06.348Z,54.28
2023-04-03T09:45:06.317Z,50.96
2023-04-03T09:46:06.237Z,49.93
2023-04-03T09:47:06.280Z,48.96
2023-04-03T09:48:08.423Z,48.54
2023-04-03T09:49:09.427Z,49.94
2023-04-03T09:50:06.364Z,48.25
2023-04-03T09:51:06.212Z,46.48
2023-04-03T09:52:06.163Z,49.29
2023-04-03T09:53:06.256Z,48.03
2023-04-03T09:54:06.228Z,46.24
2023-04-03T09:55:06.191Z,45.46
2023-04-03T09:56:06.137Z,47.85
2023-04-03T09:57:06.169Z,45.28
2023-04-03T09:58:06.113Z,46.94
2023-04-03T09:59:06.148Z,46.61
2023-04-03T10:00:06.166Z,44.98
2023-04-03T10:01:06.132Z,46.12
2023-04-03T10:02:06.090Z,46.18
2023-04-03T10:03:06.180Z,45.36
2023-04-03T10:04:06.068Z,45.04
2023-04-03T10:05:10.020Z,43.79
2023-04-03T10:06:06.036Z,42.47
2023-04-03T10:07:06.002Z,43.61
2023-04-03T10:08:06.011Z,43.91
2023-04-03T10:09:05.959Z,45.54
2023-04-03T10:10:06.007Z,45.21
2023-04-03T10:11:05.955Z,44.72
2023-04-03T10:12:06.317Z,44.12
2023-04-03T10:13:05.912Z,44.45
2023-04-03T10:14:07.272Z,45.76
2023-04-03T10:15:05.887Z,46.15
2023-04-03T10:16:05.923Z,44.08
2023-04-03T10:17:05.896Z,45.43
2023-04-03T10:18:17.996Z,45.34
2023-04-03T10:19:06.903Z,45.46
2023-04-03T10:20:05.859Z,46.59
2023-04-03T10:21:07.598Z,47.95
2023-04-03T10:22:05.802Z,47.52
2023-04-03T10:23:05.889Z,47.47
2023-04-03T10:24:06.013Z,44.57
2023-04-03T10:25:05.863Z,44.70
2023-04-03T10:26:05.776Z,43.63
2023-04-03T10:27:05.789Z,44.76
2023-04-03T10:28:05.723Z,44.64
2023-04-03T10:29:05.741Z,46.36
2023-04-03T10:30:05.702Z,46.42
2023-04-03T10:31:05.756Z,44.78
2023-04-03T10:32:05.658Z,43.55
2023-04-03T10:33:05.716Z,44.14
2023-04-03T10:34:05.704Z,44.74
2023-04-03T10:35:05.782Z,44.20
2023-04-03T10:36:05.634Z,44.94
2023-04-03T10:37:05.661Z,44.43
2023-04-03T10:38:05.641Z,45.36
2023-04-03T10:39:05.698Z,45.45
2023-04-03T10:40:05.612Z,45.04
2023-04-03T10:41:05.618Z,43.81
2023-04-03T10:42:16.684Z,44.96
2023-04-03T10:43:06.730Z,46.79
2023-04-03T10:44:05.675Z,44.94
2023-04-03T10:45:05.517Z,46.40
2023-04-03T10:46:05.587Z,46.42
2023-04-03T10:47:05.583Z,46.24
2023-04-03T10:48:05.604Z,46.65
2023-04-03T10:49:05.475Z,46.06
2023-04-03T10:50:05.708Z,46.57
2023-04-03T10:51:05.436Z,46.88
2023-04-03T10:52:05.431Z,46.34
2023-04-03T10:53:05.440Z,45.93
2023-04-03T10:54:05.444Z,47.24
2023-04-03T10:55:05.356Z,47.34
2023-04-03T10:56:05.778Z,45.48
2023-04-03T10:57:12.430Z,46.86
2023-04-03T10:58:06.351Z,47.78
2023-04-03T10:59:05.336Z,46.86
2023-04-03T11:00:05.320Z,46.75
2023-04-03T11:01:05.356Z,46.44
2023-04-03T11:02:05.320Z,45.54
2023-04-03T11:03:05.399Z,45.97
2023-04-03T11:04:05.401Z,46.72
2023-04-03T11:05:05.250Z,47.72
2023-04-03T11:06:05.251Z,48.63
2023-04-03T11:07:05.297Z,48.19
2023-04-03T11:08:05.281Z,48.50
2023-04-03T11:09:05.255Z,49.11
2023-04-03T11:10:05.201Z,48.68
2023-04-03T11:11:05.203Z,47.47
2023-04-03T11:12:05.162Z,47.19
2023-04-03T11:13:05.201Z,48.65
2023-04-03T11:14:05.166Z,47.11
2023-04-03T11:15:05.191Z,47.11
2023-04-03T11:16:05.120Z,47.13
2023-04-03T11:17:05.197Z,48.26
2023-04-03T11:18:05.174Z,48.75
2023-04-03T11:19:05.070Z,49.35
2023-04-03T11:20:05.127Z,48.63
2023-04-03T11:21:05.083Z,48.34
2023-04-03T11:22:05.033Z,48.63
2023-04-03T11:23:05.035Z,48.42
2023-04-03T11:24:05.109Z,49.04
2023-04-03T11:25:05.051Z,49.86
2023-04-03T11:26:05.047Z,49.52
2023-04-03T11:27:05.062Z,49.91
2023-04-03T11:28:04.999Z,50.10
2023-04-03T11:29:05.016Z,48.66
2023-04-03T11:30:04.980Z,48.86
2023-04-03T11:31:04.989Z,47.37
2023-04-03T11:32:04.953Z,48.19
2023-04-03T11:33:05.020Z,48.39
2023-04-03T11:34:04.913Z,48.09
2023-04-03T11:35:04.887Z,48.01
2023-04-03T11:36:09.871Z,48.75
2023-04-03T11:37:06.048Z,47.31
2023-04-03T11:38:04.854Z,47.82
2023-04-03T11:39:04.808Z,48.52
2023-04-03T11:40:04.842Z,48.09
2023-04-03T11:41:04.785Z,49.84
2023-04-03T11:42:12.884Z,48.79
2023-04-03T11:43:05.909Z,48.07
2023-04-03T11:44:04.800Z,46.94
2023-04-03T11:45:04.730Z,47.58
2023-04-03T11:46:04.746Z,47.96
2023-04-03T11:47:04.777Z,47.04
2023-04-03T11:48:16.562Z,46.03
2023-04-03T11:49:05.716Z,46.88
2023-04-03T11:50:04.706Z,47.19
2023-04-03T11:51:04.709Z,47.78
2023-04-03T11:52:04.701Z,47.24
2023-04-03T11:53:04.729Z,48.35
2023-04-03T11:54:04.641Z,47.42
2023-04-03T11:55:04.664Z,46.20
2023-04-03T11:56:05.504Z,46.22
2023-04-03T11:57:04.659Z,46.01
2023-04-03T11:58:04.694Z,45.60
2023-04-03T11:59:04.632Z,45.93
2023-04-03T12:00:04.522Z,45.21
2023-04-03T12:01:04.545Z,46.53
2023-04-03T12:02:04.623Z,45.40
2023-04-03T12:03:04.628Z,46.09
2023-04-03T12:04:04.639Z,45.99
2023-04-03T12:05:04.497Z,45.87
2023-04-03T12:06:04.468Z,44.41
2023-04-03T12:07:04.452Z,45.76
2023-04-03T12:08:04.485Z,45.45
2023-04-03T12:09:04.442Z,45.56
2023-04-03T12:10:04.429Z,46.28
2023-04-03T12:11:04.441Z,45.68
2023-04-03T12:12:04.452Z,46.38
2023-04-03T12:13:04.363Z,45.23
2023-04-03T12:14:08.235Z,45.93
2023-04-03T12:15:04.360Z,45.60
2023-04-03T12:16:04.296Z,45.78
2023-04-03T12:17:04.342Z,44.73
2023-04-03T12:18:04.416Z,43.79
2023-04-03T12:19:04.793Z,43.20
2023-04-03T12:20:04.263Z,44.12
2023-04-03T12:21:04.310Z,43.71
2023-04-03T12:22:04.238Z,42.91
2023-04-03T12:23:05.687Z,42.91
2023-04-03T12:24:04.236Z,43.40
2023-04-03T12:25:04.197Z,43.20
2023-04-03T12:26:04.287Z,42.38
2023-04-03T12:27:04.169Z,42.69
2023-04-03T12:28:04.151Z,43.43
2023-04-03T12:29:04.142Z,44.84
2023-04-03T12:30:04.150Z,43.49
2023-04-03T12:31:04.173Z,43.51
2023-04-03T12:32:04.083Z,43.30
2023-04-03T12:33:12.603Z,43.79
2023-04-03T12:34:05.128Z,43.49
2023-04-03T12:35:04.041Z,42.14
2023-04-03T12:36:04.109Z,41.50
2023-04-03T12:37:04.078Z,41.38
2023-04-03T12:38:03.985Z,40.56
2023-04-03T12:39:04.037Z,40.67
2023-04-03T12:40:04.020Z,41.59
2023-04-03T12:41:03.998Z,42.08
2023-04-03T12:42:03.979Z,41.75
2023-04-03T12:43:04.300Z,40.42
2023-04-03T12:44:03.946Z,39.83
2023-04-03T12:45:03.892Z,40.48
2023-04-03T12:46:04.106Z,41.28
2023-04-03T12:47:03.969Z,39.94
2023-04-03T12:48:03.943Z,38.98
2023-04-03T12:49:03.854Z,39.69
2023-04-03T12:50:03.886Z,39.78
2023-04-03T12:51:03.805Z,39.32
2023-04-03T12:52:03.860Z,40.36
2023-04-03T12:53:03.788Z,40.36
2023-04-03T12:54:03.815Z,41.18